Time;durP1;ratioP1;P1;durP2;ratioP2;P2;SDS_P1;SDS_P2;PMS_P1;PMS_P2;Temp;Humidity;BMP_temperature;BMP_pressure;BME280_temperature;BME280_humidity;BME280_pressure;Samples;Min_cycle;Max_cycle;Signal;HPM_P1;HPM_P2
2022/10/28 00:02:16;;;;;;;15.07;9.32;;;;;;;13.25;100.00;101562.75;6268111;22;20003;-78
2022/10/28 00:04:41;;;;;;;16.45;9.85;;;;;;;13.16;100.00;101563.16;6271373;22;20008;-79
2022/10/28 00:07:07;;;;;;;13.15;9.45;;;;;;;13.13;100.00;101568.69;6271414;22;20011;-78
2022/10/28 00:09:32;;;;;;;12.20;9.10;;;;;;;13.07;100.00;101558.28;6271968;22;20002;-79
2022/10/28 00:11:57;;;;;;;15.60;9.00;;;;;;;13.06;100.00;101567.25;6270066;22;20004;-79
2022/10/28 00:14:23;;;;;;;14.30;9.35;;;;;;;12.95;100.00;101563.28;6272380;22;20008;-79
2022/10/28 00:16:48;;;;;;;14.60;8.68;;;;;;;12.88;100.00;101561.03;6267793;22;20044;-79
2022/10/28 00:19:13;;;;;;;15.02;9.73;;;;;;;12.88;100.00;101566.38;6271507;22;20095;-79
2022/10/28 00:21:41;;;;;;;14.38;8.95;;;;;;;12.79;100.00;101569.47;6270637;22;20003;-79
2022/10/28 00:24:09;;;;;;;19.00;10.02;;;;;;;12.80;100.00;101569.41;6270402;22;20366;-79
2022/10/28 00:26:36;;;;;;;15.07;9.63;;;;;;;12.79;100.00;101569.47;6270005;22;20035;-79
2022/10/28 00:29:07;;;;;;;15.52;9.82;;;;;;;12.71;100.00;101569.84;6269837;22;20004;-78
2022/10/28 00:31:34;;;;;;;14.98;9.73;;;;;;;12.67;100.00;101562.94;6269618;22;20019;-79
2022/10/28 00:34:01;;;;;;;15.55;10.05;;;;;;;12.63;100.00;101569.34;6268796;22;20434;-79
2022/10/28 00:36:33;;;;;;;12.35;9.20;;;;;;;12.57;100.00;101567.81;6266035;22;20047;-78
2022/10/28 00:39:00;;;;;;;13.77;10.15;;;;;;;12.53;100.00;101566.22;6267920;22;20011;-79
2022/10/28 00:41:31;;;;;;;19.70;9.63;;;;;;;12.49;100.00;101561.97;6266625;22;20049;-78
2022/10/28 00:44:37;;;;;;;15.38;10.35;;;;;;;12.49;100.00;101563.78;6266981;22;20004;-79
2022/10/28 00:47:04;;;;;;;12.88;9.10;;;;;;;12.45;100.00;101561.25;6265834;22;20019;-78
2022/10/28 00:49:33;;;;;;;13.13;9.93;;;;;;;12.44;100.00;101561.34;6267337;22;20011;-79
2022/10/28 00:52:03;;;;;;;16.98;9.30;;;;;;;12.38;100.00;101558.97;6266822;22;20079;-79
2022/10/28 00:54:29;;;;;;;14.63;9.38;;;;;;;12.38;100.00;101556.31;6265956;22;20010;-80
2022/10/28 00:56:57;;;;;;;14.40;9.88;;;;;;;12.35;100.00;101553.75;6266682;22;20174;-79
2022/10/28 00:59:26;;;;;;;14.02;9.65;;;;;;;12.31;100.00;101545.03;6265588;22;20003;-79
2022/10/28 01:01:53;;;;;;;14.77;10.43;;;;;;;12.30;100.00;101537.97;6265651;22;20468;-79
2022/10/28 01:04:19;;;;;;;16.70;10.10;;;;;;;12.27;100.00;101530.09;6265199;22;20007;-78
2022/10/28 01:06:46;;;;;;;13.40;9.55;;;;;;;12.19;100.00;101532.25;6263007;22;20061;-79
2022/10/28 01:09:11;;;;;;;16.70;10.00;;;;;;;12.19;100.00;101524.25;6269670;22;20051;-79
2022/10/28 01:11:50;;;;;;;15.52;10.52;;;;;;;12.22;100.00;101534.78;6267392;22;20000;-82
2022/10/28 01:14:45;;;;;;;15.90;10.10;;;;;;;12.13;100.00;101525.41;6268213;22;20004;-80
2022/10/28 01:17:29;;;;;;;15.70;10.45;;;;;;;12.16;100.00;101521.72;6268803;22;20440;-79
2022/10/28 01:20:31;;;;;;;20.23;10.85;;;;;;;12.10;100.00;101528.22;6270343;22;20010;-80
2022/10/28 01:23:00;;;;;;;15.75;10.63;;;;;;;12.05;100.00;101527.56;6267640;22;20389;-80
2022/10/28 01:26:03;;;;;;;16.83;10.32;;;;;;;12.07;100.00;101533.69;6270794;22;20054;-80
2022/10/28 01:28:56;;;;;;;14.95;10.10;;;;;;;12.04;100.00;101523.19;6270921;22;20594;-80
2022/10/28 01:31:32;;;;;;;14.57;9.80;;;;;;;12.00;100.00;101524.25;6271190;22;20564;-79
2022/10/28 01:34:10;;;;;;;18.00;10.50;;;;;;;12.02;100.00;101521.50;6271334;22;20053;-79
2022/10/28 01:36:44;;;;;;;14.90;9.95;;;;;;;11.98;100.00;101515.44;6271655;22;20429;-79
2022/10/28 01:39:25;;;;;;;16.42;9.40;;;;;;;12.01;100.00;101517.13;6273359;22;20007;-79
2022/10/28 01:41:57;;;;;;;13.18;9.43;;;;;;;12.01;100.00;101523.31;6269820;22;20000;-80
2022/10/28 01:44:36;;;;;;;11.27;8.13;;;;;;;12.01;100.00;101514.44;6269153;22;20012;-79
2022/10/28 01:47:24;;;;;;;15.07;9.40;;;;;;;12.00;100.00;101510.91;6270712;22;20014;-78
2022/10/28 01:49:57;;;;;;;14.30;8.68;;;;;;;11.92;100.00;101510.41;6270360;22;20074;-79
2022/10/28 01:52:27;;;;;;;14.77;8.73;;;;;;;11.96;100.00;101512.84;6267965;22;20028;-78
2022/10/28 01:55:00;;;;;;;22.67;10.48;;;;;;;11.96;100.00;101518.19;6270910;22;20065;-78
2022/10/28 01:57:29;;;;;;;18.48;10.30;;;;;;;11.98;100.00;101519.91;6270368;22;20027;-79
2022/10/28 01:59:56;;;;;;;14.02;9.00;;;;;;;11.93;100.00;101506.78;6271240;22;20008;-79
2022/10/28 02:02:21;;;;;;;14.05;8.70;;;;;;;11.94;100.00;101505.84;6269203;22;20110;-80
2022/10/28 02:04:46;;;;;;;13.80;8.95;;;;;;;11.96;100.00;101510.19;6271073;22;20031;-79
2022/10/28 02:07:12;;;;;;;15.35;9.38;;;;;;;11.93;100.00;101512.13;6270946;22;20039;-80
2022/10/28 02:10:14;;;;;;;13.80;9.25;;;;;;;11.86;100.00;101500.84;6271125;22;20035;-80
2022/10/28 02:12:39;;;;;;;16.58;8.65;;;;;;;11.89;100.00;101507.88;6268805;22;20061;-80
2022/10/28 02:15:11;;;;;;;14.07;8.65;;;;;;;11.86;100.00;101508.84;6268991;22;20078;-79
2022/10/28 02:18:04;;;;;;;14.50;8.75;;;;;;;11.82;100.00;101504.56;6268295;22;20008;-78
2022/10/28 02:20:52;;;;;;;16.35;8.45;;;;;;;11.80;100.00;101503.78;6269505;22;20003;-78
2022/10/28 02:23:41;;;;;;;13.95;8.70;;;;;;;11.76;100.00;101509.34;6269409;22;20004;-78
2022/10/28 02:26:21;;;;;;;16.75;8.88;;;;;;;11.64;100.00;101508.94;6269916;22;20053;-79
2022/10/28 02:29:07;;;;;;;14.15;8.80;;;;;;;11.70;100.00;101513.13;6270426;22;20012;-78
2022/10/28 02:31:56;;;;;;;16.80;8.73;;;;;;;11.68;100.00;101509.66;6268096;22;20008;-78
2022/10/28 02:34:30;;;;;;;14.65;8.43;;;;;;;11.64;100.00;101514.28;6270036;22;20007;-79
2022/10/28 02:36:57;;;;;;;;;;;;;;;11.65;100.00;101510.66;6270876;22;20334;-80
2022/10/28 02:39:30;;;;;;;11.13;7.80;;;;;;;11.64;100.00;101513.41;6269581;22;19913;-79
2022/10/28 02:42:02;;;;;;;13.65;8.55;;;;;;;11.58;100.00;101497.66;6270252;22;20014;-79
2022/10/28 02:44:32;;;;;;;15.37;8.97;;;;;;;11.58;100.00;101503.00;6271065;22;19999;-79
2022/10/28 02:47:04;;;;;;;16.85;8.70;;;;;;;11.53;100.00;101499.69;6272052;22;20015;-78
2022/10/28 02:49:32;;;;;;;12.63;8.30;;;;;;;11.53;100.00;101495.19;6271800;22;20096;-77
2022/10/28 02:52:01;;;;;;;15.45;8.85;;;;;;;11.57;100.00;101507.47;6269470;22;20345;-78
2022/10/28 02:54:34;;;;;;;18.92;8.63;;;;;;;11.59;100.00;101494.09;6271347;22;20008;-78
2022/10/28 02:57:07;;;;;;;14.90;8.23;;;;;;;11.56;100.00;101492.41;6269991;22;20086;-79
2022/10/28 02:59:33;;;;;;;18.40;7.95;;;;;;;11.55;100.00;101490.69;6270258;22;20510;-79
2022/10/28 03:01:58;;;;;;;12.05;8.18;;;;;;;11.52;100.00;101493.47;6268598;22;20008;-78
2022/10/28 03:04:24;;;;;;;13.45;8.15;;;;;;;11.50;100.00;101497.16;6268108;22;20354;-78
2022/10/28 03:06:49;;;;;;;15.75;8.52;;;;;;;11.49;100.00;101504.28;6270067;22;20472;-77
2022/10/28 03:09:14;;;;;;;14.90;8.20;;;;;;;11.47;100.00;101495.50;6269814;22;20004;-79
2022/10/28 03:11:40;;;;;;;12.30;8.05;;;;;;;11.44;100.00;101500.94;6269368;22;20003;-78
2022/10/28 03:14:05;;;;;;;10.57;7.68;;;;;;;11.42;100.00;101498.38;6271060;22;20000;-79
2022/10/28 03:16:31;;;;;;;13.98;7.95;;;;;;;11.40;100.00;101491.34;6270711;22;20000;-78
2022/10/28 03:18:56;;;;;;;15.00;8.38;;;;;;;11.34;100.00;101494.31;6274665;22;20007;-79
2022/10/28 03:21:21;;;;;;;13.68;7.55;;;;;;;11.31;100.00;101489.09;6275425;22;20007;-79
2022/10/28 03:23:46;;;;;;;15.27;8.48;;;;;;;11.30;100.00;101493.56;6270641;22;20493;-79
2022/10/28 03:26:12;;;;;;;14.18;8.25;;;;;;;11.27;100.00;101491.03;6270031;22;20011;-79
2022/10/28 03:28:37;;;;;;;16.75;8.40;;;;;;;11.19;100.00;101487.81;6270297;22;20053;-79
2022/10/28 03:31:03;;;;;;;12.60;7.68;;;;;;;11.20;100.00;101498.44;6269185;22;20057;-79
2022/10/28 03:33:28;;;;;;;16.92;8.27;;;;;;;11.17;100.00;101495.03;6269948;22;20437;-80
2022/10/28 03:35:54;;;;;;;14.35;8.13;;;;;;;11.13;100.00;101501.44;6270525;22;20011;-79
2022/10/28 03:38:19;;;;;;;13.13;8.25;;;;;;;11.11;100.00;101497.94;6270060;22;20011;-79
2022/10/28 03:40:48;;;;;;;13.23;8.90;;;;;;;11.12;100.00;101499.66;6267992;22;20094;-78
2022/10/28 03:43:14;;;;;;;19.55;8.65;;;;;;;11.12;100.00;101495.25;6269090;22;20007;-78
2022/10/28 03:45:39;;;;;;;11.43;8.18;;;;;;;11.14;100.00;101493.34;6271120;22;20340;-79
2022/10/28 03:48:05;;;;;;;15.68;8.25;;;;;;;11.09;100.00;101483.84;6270567;22;20037;-78
2022/10/28 03:50:30;;;;;;;15.82;7.90;;;;;;;11.11;100.00;101481.97;6270233;22;20042;-79
2022/10/28 03:52:55;;;;;;;12.00;8.32;;;;;;;11.10;100.00;101482.91;6270602;22;20429;-79
2022/10/28 03:55:22;;;;;;;15.90;7.82;;;;;;;11.08;100.00;101480.31;6269495;22;20114;-79
2022/10/28 03:57:48;;;;;;;14.95;7.97;;;;;;;11.08;100.00;101487.44;6267479;22;20042;-79
2022/10/28 04:00:14;;;;;;;11.32;7.90;;;;;;;11.07;100.00;101486.56;6268120;22;20445;-78
2022/10/28 04:02:39;;;;;;;12.15;8.05;;;;;;;11.00;100.00;101485.09;6269993;22;20567;-78
2022/10/28 04:05:04;;;;;;;13.27;8.38;;;;;;;10.99;100.00;101478.00;6269340;22;20011;-80
2022/10/28 04:07:30;;;;;;;10.02;7.72;;;;;;;11.04;100.00;101477.84;6269802;22;20262;-79
2022/10/28 04:09:55;;;;;;;14.35;7.78;;;;;;;11.01;100.00;101478.84;6267667;22;20326;-78
2022/10/28 04:12:20;;;;;;;12.00;7.82;;;;;;;11.03;100.00;101489.41;6270960;22;20042;-77
2022/10/28 04:14:46;;;;;;;11.85;7.72;;;;;;;11.00;100.00;101486.91;6271088;22;20003;-79
2022/10/28 04:17:12;;;;;;;13.60;8.05;;;;;;;11.02;100.00;101485.88;6270272;22;20027;-79
2022/10/28 04:19:37;;;;;;;15.13;7.88;;;;;;;11.02;100.00;101495.69;6269974;22;20004;-80
2022/10/28 04:22:02;;;;;;;14.02;7.53;;;;;;;11.01;100.00;101484.16;6268335;22;20046;-80
2022/10/28 04:24:27;;;;;;;12.32;7.15;;;;;;;10.96;100.00;101491.50;6270851;22;20003;-79
2022/10/28 04:26:53;;;;;;;11.35;7.60;;;;;;;11.03;100.00;101497.41;6270973;22;20080;-79
2022/10/28 04:29:18;;;;;;;12.60;8.05;;;;;;;11.01;100.00;101492.16;6270390;22;20008;-79
2022/10/28 04:31:43;;;;;;;12.40;7.53;;;;;;;10.98;100.00;101501.13;6268716;22;20003;-79
2022/10/28 04:34:09;;;;;;;9.10;7.22;;;;;;;10.99;100.00;101496.66;6266832;22;20018;-79
2022/10/28 04:36:34;;;;;;;15.00;8.30;;;;;;;10.93;100.00;101473.81;6268766;22;20004;-79
2022/10/28 04:38:59;;;;;;;11.48;7.20;;;;;;;10.97;100.00;101491.41;6268737;22;20003;-79
2022/10/28 04:41:25;;;;;;;12.20;7.63;;;;;;;10.93;100.00;101491.59;6268448;22;20008;-79
2022/10/28 04:43:50;;;;;;;16.15;8.15;;;;;;;10.92;100.00;101493.41;6267578;22;20014;-79
2022/10/28 04:46:15;;;;;;;12.85;7.95;;;;;;;10.84;100.00;101495.53;6268590;22;20038;-79
2022/10/28 04:48:41;;;;;;;10.82;7.13;;;;;;;10.87;100.00;101495.41;6268787;22;20039;-79
2022/10/28 04:51:06;;;;;;;14.93;8.07;;;;;;;10.88;100.00;101488.28;6268583;22;20061;-79
2022/10/28 04:53:31;;;;;;;13.02;7.88;;;;;;;10.83;100.00;101482.28;6270995;22;20476;-79
2022/10/28 04:55:57;;;;;;;13.55;8.13;;;;;;;10.83;100.00;101487.59;6272922;22;20003;-79
2022/10/28 04:58:24;;;;;;;12.15;7.68;;;;;;;10.80;100.00;101485.94;6271065;22;20007;-79
2022/10/28 05:00:49;;;;;;;18.85;7.60;;;;;;;10.78;100.00;101489.56;6269568;22;20469;-79
2022/10/28 05:03:14;;;;;;;16.63;7.88;;;;;;;10.75;100.00;101485.25;6270836;22;19999;-79
2022/10/28 05:05:40;;;;;;;14.25;8.18;;;;;;;10.74;100.00;101483.50;6268390;22;20003;-80
2022/10/28 05:08:05;;;;;;;13.10;8.38;;;;;;;10.76;100.00;101486.97;6270788;22;20000;-78
2022/10/28 05:10:31;;;;;;;12.80;8.35;;;;;;;10.73;100.00;101487.97;6270991;22;20074;-79
2022/10/28 05:12:56;;;;;;;15.25;7.15;;;;;;;10.66;100.00;101483.84;6270474;22;20703;-79
2022/10/28 05:15:22;;;;;;;17.80;7.95;;;;;;;10.72;100.00;101491.56;6270719;22;20088;-79
2022/10/28 05:17:47;;;;;;;16.65;7.80;;;;;;;10.71;100.00;101487.19;6270995;22;20011;-79
2022/10/28 05:20:15;;;;;;;15.52;8.18;;;;;;;10.72;100.00;101480.91;6269578;22;20075;-79
2022/10/28 05:22:49;;;;;;;15.70;8.05;;;;;;;10.70;100.00;101484.56;6270982;22;19999;-79
2022/10/28 05:25:15;;;;;;;13.15;8.02;;;;;;;10.69;100.00;101480.16;6269992;22;20008;-78
2022/10/28 05:27:40;;;;;;;15.07;8.40;;;;;;;10.66;100.00;101485.66;6270857;22;20014;-79
2022/10/28 05:30:06;;;;;;;13.38;8.30;;;;;;;10.67;100.00;101482.91;6269677;22;20371;-79
2022/10/28 05:32:32;;;;;;;14.07;8.77;;;;;;;10.63;100.00;101478.63;6270539;22;20003;-79
2022/10/28 05:34:57;;;;;;;16.73;8.15;;;;;;;10.69;100.00;101475.72;6270646;22;20007;-79
2022/10/28 05:37:22;;;;;;;15.15;8.77;;;;;;;10.72;100.00;101475.59;6271470;22;20862;-79
2022/10/28 05:39:48;;;;;;;11.43;7.78;;;;;;;10.71;100.00;101473.88;6270807;22;20430;-78
2022/10/28 05:42:13;;;;;;;17.15;8.57;;;;;;;10.72;100.00;101477.38;6269479;22;20004;-79
2022/10/28 05:44:38;;;;;;;10.18;7.72;;;;;;;10.70;100.00;101476.56;6270986;22;20031;-80
2022/10/28 05:47:04;;;;;;;14.90;8.40;;;;;;;10.71;100.00;101478.31;6271072;22;20069;-78
2022/10/28 05:49:29;;;;;;;14.80;8.93;;;;;;;10.73;100.00;101484.44;6270482;22;20000;-78
2022/10/28 05:51:54;;;;;;;15.20;8.60;;;;;;;10.70;100.00;101474.81;6271134;22;20007;-79
2022/10/28 05:54:20;;;;;;;14.10;8.90;;;;;;;10.70;100.00;101473.91;6270602;22;20007;-78
2022/10/28 05:56:45;;;;;;;14.93;8.27;;;;;;;10.72;100.00;101483.56;6274275;22;20026;-79
2022/10/28 05:59:10;;;;;;;18.73;9.35;;;;;;;10.83;100.00;101480.47;6275929;22;20004;-79
2022/10/28 06:01:35;;;;;;;14.43;8.00;;;;;;;10.70;100.00;101480.13;6276925;22;20003;-79
2022/10/28 06:04:01;;;;;;;16.08;9.38;;;;;;;10.82;100.00;101481.38;6277299;22;20496;-79
2022/10/28 06:06:27;;;;;;;14.93;9.25;;;;;;;10.78;100.00;101478.91;6279019;22;20057;-78
2022/10/28 06:08:53;;;;;;;15.20;10.15;;;;;;;10.77;100.00;101482.53;6280131;22;20007;-79
2022/10/28 06:11:18;;;;;;;14.32;9.40;;;;;;;10.86;100.00;101479.47;6283618;22;20030;-79
2022/10/28 06:13:43;;;;;;;16.02;9.20;;;;;;;10.77;100.00;101478.06;6280330;22;20015;-80
2022/10/28 06:16:09;;;;;;;16.13;9.02;;;;;;;10.77;100.00;101475.41;6273035;22;20129;-79
2022/10/28 06:18:34;;;;;;;13.07;8.90;;;;;;;10.74;100.00;101475.50;6269215;22;20007;-79
2022/10/28 06:20:59;;;;;;;21.65;10.10;;;;;;;10.81;100.00;101479.66;6267473;22;20084;-79
2022/10/28 06:23:27;;;;;;;17.85;10.88;;;;;;;10.77;100.00;101488.72;6268765;22;20004;-79
2022/10/28 06:25:57;;;;;;;24.30;13.85;;;;;;;10.75;100.00;101489.72;6269930;22;20012;-79
2022/10/28 06:28:22;;;;;;;17.45;9.68;;;;;;;10.68;100.00;101487.28;6270849;22;20007;-78
2022/10/28 06:30:47;;;;;;;18.80;9.52;;;;;;;10.68;100.00;101495.28;6269778;22;20010;-79
2022/10/28 06:33:12;;;;;;;15.18;9.85;;;;;;;10.68;100.00;101497.09;6272200;22;20000;-79
2022/10/28 06:35:38;;;;;;;15.85;8.48;;;;;;;10.67;100.00;101501.53;6270626;22;19996;-79
2022/10/28 06:38:03;;;;;;;13.98;9.30;;;;;;;10.67;100.00;101490.03;6269718;22;20010;-79
2022/10/28 06:40:28;;;;;;;15.77;9.75;;;;;;;10.66;100.00;101486.50;6270848;22;20042;-80
2022/10/28 06:43:05;;;;;;;16.20;9.82;;;;;;;10.69;100.00;101483.69;6268879;22;20007;-80
2022/10/28 06:45:32;;;;;;;19.10;11.13;;;;;;;10.69;100.00;101481.03;6270879;22;20043;-79
2022/10/28 06:48:00;;;;;;;19.27;11.07;;;;;;;10.77;100.00;101480.72;6271301;22;20013;-79
2022/10/28 06:50:26;;;;;;;15.23;10.13;;;;;;;10.79;100.00;101492.19;6270397;22;20477;-78
2022/10/28 06:52:54;;;;;;;19.88;12.43;;;;;;;10.88;100.00;101497.13;6271976;22;20004;-79
2022/10/28 06:55:19;;;;;;;22.77;11.88;;;;;;;10.98;100.00;101485.13;6271455;22;20004;-79
2022/10/28 06:57:45;;;;;;;25.20;16.95;;;;;;;11.03;100.00;101492.06;6271443;22;20007;-80
2022/10/28 07:00:11;;;;;;;23.05;13.57;;;;;;;11.09;100.00;101492.69;6270206;22;20047;-79
2022/10/28 07:02:36;;;;;;;20.70;13.52;;;;;;;11.17;100.00;101485.25;6271413;22;20555;-80
2022/10/28 07:05:01;;;;;;;21.02;12.75;;;;;;;11.27;100.00;101493.69;6269319;22;20003;-80
2022/10/28 07:07:27;;;;;;;19.23;13.13;;;;;;;11.31;100.00;101489.97;6268479;22;20303;-80
2022/10/28 07:09:52;;;;;;;15.02;10.57;;;;;;;11.43;100.00;101499.22;6268895;22;20097;-81
2022/10/28 07:12:17;;;;;;;16.60;10.70;;;;;;;11.48;100.00;101492.75;6269465;22;20004;-79
2022/10/28 07:14:42;;;;;;;23.30;12.07;;;;;;;11.62;100.00;101496.59;6268968;22;20003;-80
2022/10/28 07:17:08;;;;;;;22.88;13.18;;;;;;;11.72;100.00;101490.78;6268887;22;20501;-79
2022/10/28 07:19:33;;;;;;;20.85;12.57;;;;;;;11.83;100.00;101493.00;6268698;22;20334;-80
2022/10/28 07:21:58;;;;;;;24.00;14.70;;;;;;;11.90;100.00;101499.78;6269839;22;20087;-79
2022/10/28 07:24:23;;;;;;;21.48;12.07;;;;;;;12.02;100.00;101497.50;6269726;22;20083;-78
2022/10/28 07:26:49;;;;;;;19.92;11.15;;;;;;;12.05;100.00;101498.22;6266759;22;20000;-78
2022/10/28 07:29:15;;;;;;;22.58;11.68;;;;;;;12.12;100.00;101499.69;6268741;22;20050;-79
2022/10/28 07:31:40;;;;;;;22.40;11.20;;;;;;;12.25;100.00;101505.31;6270127;22;20007;-79
2022/10/28 07:34:06;;;;;;;15.23;10.65;;;;;;;12.33;100.00;101508.47;6270453;22;20011;-79
2022/10/28 07:36:31;;;;;;;16.70;10.88;;;;;;;12.41;100.00;101506.28;6272342;22;20000;-79
2022/10/28 07:38:56;;;;;;;14.73;10.25;;;;;;;12.54;100.00;101521.69;6270328;22;20008;-78
2022/10/28 07:41:22;;;;;;;20.58;10.73;;;;;;;12.71;100.00;101519.09;6269416;22;20073;-78
2022/10/28 07:43:48;;;;;;;18.23;10.48;;;;;;;12.84;100.00;101506.88;6269108;22;20023;-79
2022/10/28 07:46:14;;;;;;;15.98;10.63;;;;;;;13.01;100.00;101500.69;6267924;22;20007;-80
2022/10/28 07:48:40;;;;;;;19.38;10.50;;;;;;;13.10;100.00;101494.84;6269725;22;20314;-80
2022/10/28 07:51:06;;;;;;;18.02;9.85;;;;;;;13.29;100.00;101494.78;6267393;22;20004;-82
2022/10/28 07:53:32;;;;;;;19.00;8.93;;;;;;;13.47;100.00;101490.31;6267580;22;20057;-79
2022/10/28 07:56:00;;;;;;;20.40;9.80;;;;;;;13.66;100.00;101487.50;6268232;22;20074;-79
2022/10/28 07:58:26;;;;;;;13.93;9.38;;;;;;;13.76;100.00;101493.25;6269360;22;19999;-78
2022/10/28 08:00:51;;;;;;;18.77;9.90;;;;;;;13.91;100.00;101482.56;6267456;22;20511;-79
2022/10/28 08:03:17;;;;;;;15.57;9.40;;;;;;;14.03;100.00;101490.88;6271655;22;20010;-80
2022/10/28 08:05:42;;;;;;;16.90;9.98;;;;;;;14.19;100.00;101489.09;6269548;22;20008;-79
2022/10/28 08:08:07;;;;;;;14.27;8.73;;;;;;;14.37;100.00;101488.03;6270297;22;20037;-78
2022/10/28 08:10:33;;;;;;;18.08;10.18;;;;;;;14.47;100.00;101493.75;6269028;22;20004;-80
2022/10/28 08:12:59;;;;;;;21.25;10.23;;;;;;;14.68;100.00;101489.03;6269344;22;20049;-78
2022/10/28 08:15:25;;;;;;;17.60;9.30;;;;;;;14.91;100.00;101498.38;6266489;22;20073;-79
2022/10/28 08:17:51;;;;;;;17.48;9.05;;;;;;;15.05;100.00;101506.50;6270030;22;20008;-78
2022/10/28 08:20:16;;;;;;;14.95;9.10;;;;;;;15.24;100.00;101516.97;6269839;22;20027;-78
2022/10/28 08:22:41;;;;;;;13.98;8.05;;;;;;;15.31;100.00;101507.63;6269073;22;20012;-80
2022/10/28 08:25:07;;;;;;;16.00;8.73;;;;;;;15.54;100.00;101514.25;6268061;22;20004;-80
2022/10/28 08:27:32;;;;;;;17.52;8.75;;;;;;;15.52;100.00;101521.56;6270318;22;20065;-79
2022/10/28 08:29:58;;;;;;;16.48;8.43;;;;;;;15.63;100.00;101520.88;6270381;22;19999;-79
2022/10/28 08:32:23;;;;;;;15.25;8.80;;;;;;;15.66;100.00;101515.38;6273239;22;20007;-77
2022/10/28 08:34:48;;;;;;;18.52;9.30;;;;;;;15.67;100.00;101509.03;6269690;22;20065;-80
2022/10/28 08:37:15;;;;;;;15.90;8.63;;;;;;;15.67;100.00;101511.72;6268244;22;20004;-79
2022/10/28 08:39:40;;;;;;;16.98;7.82;;;;;;;15.67;100.00;101511.72;6270133;22;20317;-81
2022/10/28 08:42:24;;;;;;;15.02;8.15;;;;;;;15.72;100.00;101515.00;6270428;22;20011;-79
2022/10/28 08:45:17;;;;;;;12.73;8.07;;;;;;;15.75;100.00;101514.78;6270404;22;20325;-79
2022/10/28 08:47:48;;;;;;;16.57;8.93;;;;;;;15.88;100.00;101499.69;6271628;22;20008;-80
2022/10/28 08:50:17;;;;;;;16.35;8.60;;;;;;;15.85;100.00;101491.81;6268610;22;20110;-79
2022/10/28 08:52:53;;;;;;;16.10;8.23;;;;;;;16.10;99.18;101490.25;6271601;22;20003;-79
2022/10/28 08:55:23;;;;;;;15.57;8.35;;;;;;;16.19;99.86;101492.34;6269129;22;19999;-79
2022/10/28 08:58:01;;;;;;;15.73;7.22;;;;;;;16.30;99.20;101489.84;6268736;22;20483;-78
2022/10/28 09:00:30;;;;;;;11.82;7.30;;;;;;;16.48;98.36;101495.00;6266986;22;20027;-79
2022/10/28 09:03:00;;;;;;;14.63;7.45;;;;;;;16.73;96.27;101503.19;6271904;22;20420;-79
2022/10/28 09:05:26;;;;;;;14.70;7.32;;;;;;;16.96;94.24;101503.47;6271369;22;20000;-79
2022/10/28 09:07:53;;;;;;;13.93;8.30;;;;;;;17.07;95.41;101498.25;6272229;22;20008;-78
2022/10/28 09:10:52;;;;;;;13.55;7.05;;;;;;;17.26;95.10;101512.13;6269811;22;20014;-78
2022/10/28 09:13:17;;;;;;;15.68;6.35;;;;;;;17.45;91.57;101508.22;6271405;22;20073;-78
2022/10/28 09:15:51;;;;;;;11.30;6.53;;;;;;;17.48;91.83;101502.63;6273259;22;20386;-79
2022/10/28 09:18:41;;;;;;;18.70;6.70;;;;;;;17.59;91.15;101526.94;6271353;22;20022;-78
2022/10/28 09:21:17;;;;;;;17.20;7.40;;;;;;;17.66;90.57;101518.34;6271219;22;20007;-79
2022/10/28 09:23:51;;;;;;;18.13;7.35;;;;;;;17.78;88.85;101523.88;6270767;22;20042;-79
2022/10/28 09:26:40;;;;;;;14.65;6.65;;;;;;;17.87;88.66;101525.91;6271444;22;20012;-79
2022/10/28 09:29:15;;;;;;;13.43;6.72;;;;;;;18.00;87.17;101525.91;6270854;22;20014;-79
2022/10/28 09:31:48;;;;;;;13.52;6.10;;;;;;;18.15;86.46;101527.50;6272670;22;20482;-78
2022/10/28 09:34:42;;;;;;;14.57;6.03;;;;;;;18.39;86.49;101523.03;6269317;22;20524;-79
2022/10/28 09:37:28;;;;;;;16.45;7.07;;;;;;;18.60;85.50;101526.00;6268012;22;20003;-80
2022/10/28 09:40:18;;;;;;;11.70;6.03;;;;;;;18.65;86.19;101520.25;6269456;22;20031;-81
2022/10/28 09:42:56;;;;;;;13.07;6.90;;;;;;;18.60;82.77;101528.69;6270660;22;20452;-82
2022/10/28 09:45:27;;;;;;;15.05;6.30;;;;;;;18.53;83.89;101524.72;6268837;22;20007;-82
2022/10/28 09:48:29;;;;;;;14.48;6.63;;;;;;;18.62;84.43;101524.03;6270221;22;20083;-82
2022/10/28 09:50:57;;;;;;;14.43;7.10;;;;;;;18.51;83.50;101523.94;6271060;22;20438;-82
2022/10/28 09:53:34;;;;;;;16.48;6.60;;;;;;;18.58;82.95;101519.84;6268920;22;20014;-80
2022/10/28 09:56:01;;;;;;;13.88;6.90;;;;;;;18.61;82.67;101513.38;6271846;22;20064;-80
2022/10/28 09:58:26;;;;;;;11.50;6.97;;;;;;;18.73;81.98;101515.19;6268301;22;20015;-80
2022/10/28 10:00:51;;;;;;;16.08;8.00;;;;;;;18.66;82.72;101516.56;6271159;22;20462;-79
2022/10/28 10:03:17;;;;;;;15.25;7.53;;;;;;;18.87;81.15;101524.94;6271910;22;20654;-81
2022/10/28 10:05:48;;;;;;;14.52;6.82;;;;;;;18.99;81.42;101532.09;6270906;22;20417;-80
2022/10/28 10:08:17;;;;;;;14.30;6.50;;;;;;;19.24;78.68;101533.81;6272529;22;20111;-81
2022/10/28 10:11:00;;;;;;;15.65;6.03;;;;;;;19.31;78.91;101529.66;6272085;22;20242;-81
2022/10/28 10:13:31;;;;;;;17.58;6.78;;;;;;;19.38;77.90;101530.88;6272205;22;19999;-81
2022/10/28 10:16:04;;;;;;;15.43;6.10;;;;;;;19.56;77.13;101538.53;6271035;22;20014;-80
2022/10/28 10:18:33;;;;;;;9.68;5.25;;;;;;;19.71;76.61;101537.38;6271512;22;20010;-80
2022/10/28 10:20:59;;;;;;;15.70;5.78;;;;;;;19.74;77.27;101531.75;6270774;22;20141;-79
2022/10/28 10:23:33;;;;;;;12.77;6.15;;;;;;;19.90;76.30;101539.50;6268553;22;20413;-78
2022/10/28 10:26:11;;;;;;;15.00;5.90;;;;;;;19.98;75.07;101531.66;6270300;22;20000;-80
2022/10/28 10:28:44;;;;;;;15.18;6.03;;;;;;;20.10;73.40;101521.69;6271213;22;20007;-77
2022/10/28 10:31:18;;;;;;;12.27;4.32;;;;;;;20.29;71.63;101519.22;6260551;22;20013;-79
2022/10/28 10:33:49;;;;;;;11.75;4.68;;;;;;;20.40;72.41;101515.66;6265519;22;20004;-79
2022/10/28 10:36:16;;;;;;;16.20;5.25;;;;;;;20.75;70.07;101514.63;6269114;22;19999;-80
2022/10/28 10:38:48;;;;;;;14.35;5.10;;;;;;;20.83;70.67;101509.44;6270491;22;20030;-80
2022/10/28 10:41:35;;;;;;;13.52;5.32;;;;;;;21.02;72.17;101508.72;6267811;22;20027;-79
2022/10/28 10:44:00;;;;;;;12.50;5.15;;;;;;;21.04;68.85;101504.06;6270304;22;20004;-80
2022/10/28 10:46:26;;;;;;;12.18;4.97;;;;;;;21.09;67.59;101502.69;6271504;22;20007;-80
2022/10/28 10:49:14;;;;;;;17.83;5.47;;;;;;;21.07;69.35;101509.22;6271433;22;20579;-80
2022/10/28 10:52:01;;;;;;;13.30;5.35;;;;;;;21.12;68.15;101510.56;6271045;22;20010;-81
2022/10/28 10:54:29;;;;;;;11.60;4.18;;;;;;;21.11;65.65;101508.84;6270246;22;20110;-81
2022/10/28 10:57:09;;;;;;;11.63;4.50;;;;;;;21.21;65.68;101502.63;6271597;22;20004;-81
2022/10/28 10:59:39;;;;;;;11.07;4.82;;;;;;;21.22;64.63;101494.38;6267268;22;20015;-79
2022/10/28 11:02:19;;;;;;;14.55;5.10;;;;;;;21.31;65.36;101498.13;6266000;22;20487;-79
2022/10/28 11:04:50;;;;;;;12.90;5.28;;;;;;;21.34;64.61;101504.19;6269651;22;20413;-80
2022/10/28 11:07:16;;;;;;;11.63;5.13;;;;;;;21.48;63.82;101504.84;6268426;22;20000;-80
2022/10/28 11:09:41;;;;;;;13.05;5.43;;;;;;;21.50;63.41;101502.88;6269730;22;20010;-79
2022/10/28 11:12:31;;;;;;;13.07;4.75;;;;;;;21.61;64.60;101500.94;6268642;22;20008;-80
2022/10/28 11:14:59;;;;;;;12.00;5.13;;;;;;;21.71;62.37;101501.00;6271157;22;20080;-79
2022/10/28 11:17:32;;;;;;;11.70;5.63;;;;;;;21.88;64.02;101491.38;6270079;22;20004;-80
2022/10/28 11:19:59;;;;;;;;;;;;;;;22.15;66.15;101487.22;6271232;22;20010;-80
2022/10/28 11:22:48;;;;;;;15.15;5.40;;;;;;;22.30;62.73;101480.44;6271767;22;20103;-80